Time;durP1;ratioP1;P1;durP2;ratioP2;P2;SDS_P1;SDS_P2;PMS_P1;PMS_P2;Temp;Humidity;BMP_temperature;BMP_pressure;BME280_temperature;BME280_humidity;BME280_pressure;Samples;Min_cycle;Max_cycle;Signal;HPM_P1;HPM_P2
2021/05/30 00:00:10;;;;;;;5.00;4.50;;;10.70;92.30;;;;;;4954151;28;20213;-82
2021/05/30 00:02:58;;;;;;;4.63;4.23;;;10.60;92.00;;;;;;4945809;28;20205;-82
2021/05/30 00:05:27;;;;;;;7.30;4.80;;;10.60;92.20;;;;;;4946757;28;20224;-82
2021/05/30 00:07:55;;;;;;;4.90;4.40;;;10.60;92.30;;;;;;4965913;28;20497;-85
2021/05/30 00:10:23;;;;;;;5.27;4.40;;;10.60;92.10;;;;;;4974684;28;20421;-82
2021/05/30 00:12:53;;;;;;;4.93;4.43;;;10.80;92.00;;;;;;4970094;28;20260;-83
2021/05/30 00:15:21;;;;;;;5.90;4.20;;;10.80;91.60;;;;;;4973276;28;20236;-81
2021/05/30 00:17:49;;;;;;;5.97;5.37;;;10.90;91.70;;;;;;4969524;28;20190;-82
2021/05/30 00:20:17;;;;;;;7.50;4.37;;;10.70;91.70;;;;;;4962021;28;20227;-82
2021/05/30 00:22:46;;;;;;;6.50;4.67;;;10.80;91.60;;;;;;4958259;28;20527;-83
2021/05/30 00:25:14;;;;;;;5.60;4.40;;;10.90;91.70;;;;;;4956069;28;20209;-84
2021/05/30 00:27:42;;;;;;;5.07;4.43;;;10.90;91.60;;;;;;4952618;28;20201;-81
2021/05/30 00:30:14;;;;;;;4.60;4.10;;;10.90;91.60;;;;;;4951545;28;20308;-82
2021/05/30 00:32:49;;;;;;;5.23;4.40;;;10.90;91.70;;;;;;4944900;28;20229;-84
2021/05/30 00:35:17;;;;;;;5.20;4.50;;;10.90;91.50;;;;;;4951593;28;20212;-82
2021/05/30 00:37:45;;;;;;;4.43;3.87;;;10.90;91.60;;;;;;4945346;28;20735;-82
2021/05/30 00:40:15;;;;;;;4.20;3.80;;;10.90;91.60;;;;;;4947351;28;20212;-82
2021/05/30 00:42:43;;;;;;;4.50;4.10;;;10.90;91.40;;;;;;4948701;28;20210;-84
2021/05/30 00:45:13;;;;;;;5.43;4.20;;;10.90;91.40;;;;;;4948480;28;20205;-83
2021/05/30 00:47:42;;;;;;;4.00;3.70;;;10.90;91.30;;;;;;4959209;28;20205;-84
2021/05/30 00:50:11;;;;;;;4.20;3.80;;;10.90;91.50;;;;;;4953114;28;20206;-83
2021/05/30 00:52:41;;;;;;;4.30;3.90;;;11.00;91.60;;;;;;4946575;28;20694;-85
2021/05/30 00:55:11;;;;;;;4.40;3.80;;;10.80;91.60;;;;;;4962243;28;20207;-82
2021/05/30 00:57:40;;;;;;;4.30;3.90;;;10.90;91.50;;;;;;4945856;28;20197;-81
2021/05/30 01:00:10;;;;;;;4.20;3.80;;;10.90;91.40;;;;;;4948597;28;20647;-83
2021/05/30 01:02:40;;;;;;;4.10;3.70;;;10.90;91.60;;;;;;4939007;28;20212;-82
2021/05/30 01:05:10;;;;;;;4.27;3.87;;;10.90;91.60;;;;;;4953638;28;20288;-82
2021/05/30 01:07:41;;;;;;;3.90;3.50;;;10.90;91.50;;;;;;4949720;28;20203;-82
2021/05/30 01:10:26;;;;;;;3.87;3.57;;;11.10;91.40;;;;;;4957152;28;20268;-81
2021/05/30 01:12:54;;;;;;;4.50;3.20;;;10.90;91.30;;;;;;4951283;28;20529;-81
2021/05/30 01:15:22;;;;;;;3.70;3.40;;;10.90;91.30;;;;;;4950525;28;20198;-82
2021/05/30 01:17:53;;;;;;;3.97;3.47;;;11.00;91.20;;;;;;4948201;28;20635;-82
2021/05/30 01:20:23;;;;;;;4.00;3.60;;;10.90;91.10;;;;;;4947706;29;20205;-83
2021/05/30 01:22:52;;;;;;;4.30;3.40;;;10.90;91.10;;;;;;4948598;28;20209;-83
2021/05/30 01:25:22;;;;;;;3.50;3.17;;;10.90;91.10;;;;;;4953298;28;20441;-83
2021/05/30 01:27:51;;;;;;;4.60;4.20;;;10.90;91.00;;;;;;4946827;28;20202;-82
2021/05/30 01:30:20;;;;;;;3.40;3.20;;;10.90;91.10;;;;;;4957851;28;20987;-84
2021/05/30 01:32:50;;;;;;;3.80;3.40;;;10.90;91.00;;;;;;4958904;28;20234;-82
2021/05/30 01:35:19;;;;;;;4.40;4.00;;;10.90;91.00;;;;;;4967248;28;20331;-82
2021/05/30 01:37:48;;;;;;;3.60;3.30;;;10.90;91.00;;;;;;4963013;28;20201;-82
2021/05/30 01:40:17;;;;;;;4.27;3.43;;;10.80;90.90;;;;;;4974630;28;20204;-81
2021/05/30 01:42:46;;;;;;;3.80;3.50;;;10.90;91.10;;;;;;4976594;28;20259;-83
2021/05/30 01:45:15;;;;;;;4.93;3.60;;;10.90;90.80;;;;;;4975087;28;20202;-82
2021/05/30 01:47:44;;;;;;;4.43;3.37;;;10.90;90.60;;;;;;4959745;28;20296;-83
2021/05/30 01:50:14;;;;;;;3.77;2.90;;;10.90;90.60;;;;;;4955937;28;20216;-82
2021/05/30 01:52:42;;;;;;;3.50;3.20;;;10.90;90.60;;;;;;4955463;28;20224;-83
2021/05/30 01:55:18;;;;;;;4.33;3.30;;;11.00;90.70;;;;;;4960717;28;20256;-82
2021/05/30 01:57:49;;;;;;;3.67;3.07;;;10.90;90.60;;;;;;4952259;28;20695;-82
2021/05/30 02:00:18;;;;;;;3.10;2.90;;;10.90;90.20;;;;;;4943995;28;20216;-83
2021/05/30 02:02:50;;;;;;;3.90;3.07;;;10.90;90.30;;;;;;4948292;28;20292;-83
2021/05/30 02:05:19;;;;;;;2.90;2.70;;;10.90;90.30;;;;;;4964680;28;20178;-81
2021/05/30 02:07:49;;;;;;;3.27;2.97;;;10.90;90.10;;;;;;4972031;28;20202;-82
2021/05/30 02:10:18;;;;;;;3.27;2.90;;;10.90;90.20;;;;;;4955696;28;20229;-83
2021/05/30 02:12:50;;;;;;;3.43;2.97;;;10.90;90.20;;;;;;4956568;28;20228;-83
2021/05/30 02:15:19;;;;;;;3.67;2.80;;;10.90;90.20;;;;;;4956748;28;20687;-81
2021/05/30 02:17:48;;;;;;;3.10;2.90;;;10.80;90.20;;;;;;4956743;28;20276;-82
2021/05/30 02:20:17;;;;;;;3.40;3.10;;;10.90;90.20;;;;;;4953895;28;20201;-83
2021/05/30 02:22:45;;;;;;;3.00;2.80;;;10.80;90.30;;;;;;4946059;28;20212;-84
2021/05/30 02:25:13;;;;;;;3.20;2.83;;;11.00;90.60;;;;;;4957192;28;20516;-81
2021/05/30 02:27:41;;;;;;;4.60;3.23;;;10.70;90.40;;;;;;4951720;28;20206;-83
2021/05/30 02:30:11;;;;;;;3.40;3.00;;;10.80;90.50;;;;;;4957260;28;20209;-84
2021/05/30 02:32:39;;;;;;;5.23;3.30;;;10.70;90.60;;;;;;4958111;28;20225;-84
2021/05/30 02:35:08;;;;;;;3.13;2.93;;;10.70;90.70;;;;;;4953024;28;20201;-83
2021/05/30 02:37:36;;;;;;;4.00;3.40;;;10.70;91.00;;;;;;4937368;28;20249;-82
2021/05/30 02:40:06;;;;;;;2.87;2.60;;;10.70;91.00;;;;;;4957389;28;20274;-82
2021/05/30 02:42:35;;;;;;;4.13;3.10;;;10.80;91.20;;;;;;4958553;28;20329;-83
2021/05/30 02:45:04;;;;;;;2.93;2.70;;;10.80;91.10;;;;;;4951407;28;20689;-81
2021/05/30 02:47:33;;;;;;;3.20;2.93;;;10.80;91.10;;;;;;4960222;28;20210;-82
2021/05/30 02:50:01;;;;;;;4.00;3.03;;;10.80;91.20;;;;;;4956322;28;20436;-82
2021/05/30 02:52:29;;;;;;;3.93;2.80;;;10.80;91.10;;;;;;4958423;28;20229;-81
2021/05/30 02:54:57;;;;;;;3.53;3.20;;;10.80;91.20;;;;;;4959505;28;20208;-82
2021/05/30 02:57:26;;;;;;;4.40;3.50;;;10.70;91.20;;;;;;4960845;28;20205;-82
2021/05/30 02:59:53;;;;;;;2.80;2.60;;;10.80;91.30;;;;;;4959959;28;20757;-83
2021/05/30 03:02:21;;;;;;;3.60;3.30;;;10.80;91.30;;;;;;4956872;28;20237;-83
2021/05/30 03:04:50;;;;;;;3.53;3.17;;;10.80;91.40;;;;;;4948069;28;20224;-83
2021/05/30 03:07:18;;;;;;;4.07;3.67;;;10.80;91.60;;;;;;4957529;28;20219;-83
2021/05/30 03:09:46;;;;;;;3.87;3.30;;;10.80;91.60;;;;;;4966005;28;20205;-83
2021/05/30 03:12:16;;;;;;;3.07;2.80;;;10.80;91.60;;;;;;4940752;28;20240;-83
2021/05/30 03:14:44;;;;;;;5.70;3.37;;;10.90;91.40;;;;;;4958436;28;20201;-80
2021/05/30 03:17:12;;;;;;;3.10;2.90;;;10.90;91.20;;;;;;4956209;28;20664;-82
2021/05/30 03:19:40;;;;;;;3.50;3.20;;;11.00;91.10;;;;;;4943914;28;20316;-82
2021/05/30 03:22:09;;;;;;;3.70;3.00;;;11.00;91.00;;;;;;4953862;28;20208;-83
2021/05/30 03:24:38;;;;;;;3.17;2.97;;;11.00;90.90;;;;;;4954352;28;20206;-82
2021/05/30 03:27:06;;;;;;;4.93;3.57;;;11.00;91.10;;;;;;4955736;28;20460;-83
2021/05/30 03:29:34;;;;;;;5.53;3.17;;;11.10;91.10;;;;;;4950705;28;20232;-81
2021/05/30 03:32:03;;;;;;;3.27;2.97;;;11.10;90.90;;;;;;4952883;28;20669;-82
2021/05/30 03:34:30;;;;;;;2.57;2.37;;;11.10;90.90;;;;;;4956352;28;20219;-82
2021/05/30 03:36:58;;;;;;;4.43;3.17;;;11.10;91.00;;;;;;4954657;28;20578;-81
2021/05/30 03:39:30;;;;;;;3.93;3.53;;;11.00;91.40;;;;;;4956233;28;20257;-83
2021/05/30 03:42:06;;;;;;;3.87;3.23;;;10.90;91.40;;;;;;4950408;28;20555;-84
2021/05/30 03:44:35;;;;;;;3.40;3.10;;;10.90;91.60;;;;;;4962408;28;20220;-82
2021/05/30 03:47:03;;;;;;;3.67;3.30;;;10.90;91.70;;;;;;4974822;28;20404;-83
2021/05/30 03:49:31;;;;;;;4.17;3.20;;;10.90;91.80;;;;;;4978540;28;20184;-84
2021/05/30 03:52:00;;;;;;;3.73;3.43;;;10.90;91.70;;;;;;4953634;28;20236;-82
2021/05/30 03:54:29;;;;;;;3.53;3.23;;;10.90;91.80;;;;;;4973395;28;20220;-81
2021/05/30 03:56:57;;;;;;;4.70;3.47;;;10.90;92.10;;;;;;4960872;28;20205;-82
2021/05/30 03:59:25;;;;;;;4.50;3.17;;;11.00;91.80;;;;;;4965185;28;20201;-81
2021/05/30 04:01:53;;;;;;;3.60;3.30;;;11.00;91.70;;;;;;4967165;28;20226;-83
2021/05/30 04:04:21;;;;;;;4.10;3.70;;;11.10;91.70;;;;;;4964109;28;20425;-82
2021/05/30 04:06:49;;;;;;;3.63;3.33;;;11.20;91.60;;;;;;4971803;28;20994;-84
2021/05/30 04:09:17;;;;;;;3.33;3.03;;;11.20;91.20;;;;;;4966346;28;20674;-82
2021/05/30 04:11:46;;;;;;;3.70;3.40;;;11.40;91.10;;;;;;4959975;28;20204;-82
2021/05/30 04:14:14;;;;;;;5.57;3.50;;;11.30;91.20;;;;;;4963957;28;20196;-83
2021/05/30 04:16:42;;;;;;;3.93;3.63;;;11.30;90.70;;;;;;4971151;28;20193;-84
2021/05/30 04:19:10;;;;;;;4.07;3.67;;;11.30;90.90;;;;;;4963077;28;20225;-83
2021/05/30 04:21:39;;;;;;;3.70;3.30;;;11.40;90.80;;;;;;4958980;28;20221;-84
2021/05/30 04:24:08;;;;;;;3.80;3.20;;;11.40;90.70;;;;;;4955721;28;20196;-80
2021/05/30 04:26:36;;;;;;;4.83;3.53;;;11.40;90.70;;;;;;4956534;28;20291;-83
2021/05/30 04:29:05;;;;;;;4.03;3.63;;;11.40;90.90;;;;;;4954451;28;20271;-83
2021/05/30 04:31:33;;;;;;;4.93;3.40;;;11.50;90.70;;;;;;4971513;28;20463;-83
2021/05/30 04:34:01;;;;;;;3.67;3.37;;;11.60;90.50;;;;;;4968471;28;20427;-82
2021/05/30 04:36:29;;;;;;;4.00;3.60;;;11.50;90.40;;;;;;4966515;28;20213;-81
2021/05/30 04:38:57;;;;;;;3.70;3.40;;;11.50;90.50;;;;;;4964580;28;20484;-82
2021/05/30 04:41:25;;;;;;;4.00;3.43;;;11.50;90.60;;;;;;4967324;28;20682;-82
2021/05/30 04:43:53;;;;;;;4.10;3.30;;;11.60;90.50;;;;;;4967177;28;20200;-86
2021/05/30 04:46:22;;;;;;;4.00;3.70;;;11.60;90.40;;;;;;4977879;28;20235;-82
2021/05/30 04:48:50;;;;;;;4.30;3.50;;;11.60;90.40;;;;;;4966825;28;20208;-81
2021/05/30 04:51:17;;;;;;;3.70;3.37;;;11.60;90.30;;;;;;4948972;28;20220;-84
2021/05/30 04:53:46;;;;;;;4.50;3.30;;;11.70;90.30;;;;;;4962599;28;20235;-84
2021/05/30 04:56:18;;;;;;;3.67;3.20;;;11.80;90.10;;;;;;4970641;28;20205;-84
2021/05/30 04:58:46;;;;;;;4.00;3.63;;;12.00;89.50;;;;;;4974378;28;20270;-83
2021/05/30 05:01:14;;;;;;;3.47;3.17;;;11.90;89.20;;;;;;4969694;28;20208;-85
2021/05/30 05:03:43;;;;;;;4.57;3.40;;;12.10;89.50;;;;;;4973030;28;20201;-85
2021/05/30 05:06:11;;;;;;;3.87;3.50;;;12.20;89.20;;;;;;4967741;28;20242;-82
2021/05/30 05:08:39;;;;;;;3.60;3.30;;;12.20;89.10;;;;;;4971071;28;20213;-82
2021/05/30 05:11:08;;;;;;;3.90;3.50;;;12.20;89.10;;;;;;4971164;28;20212;-86
2021/05/30 05:13:37;;;;;;;3.90;3.50;;;12.10;88.80;;;;;;4972416;28;20539;-85
2021/05/30 05:16:05;;;;;;;3.97;3.50;;;12.20;89.10;;;;;;4966708;28;20212;-84
2021/05/30 05:18:34;;;;;;;3.90;3.60;;;12.40;88.50;;;;;;4966288;28;20599;-83
2021/05/30 05:21:04;;;;;;;4.83;2.97;;;12.40;88.60;;;;;;4971085;28;20252;-83
2021/05/30 05:23:33;;;;;;;4.93;3.67;;;12.50;87.90;;;;;;4983160;28;20713;-83
2021/05/30 05:26:02;;;;;;;4.13;3.73;;;12.40;88.00;;;;;;4970114;28;20208;-82
2021/05/30 05:28:32;;;;;;;3.87;3.47;;;12.40;88.40;;;;;;4980579;28;20244;-82
2021/05/30 05:31:10;;;;;;;3.63;3.33;;;12.60;88.30;;;;;;4969862;28;20668;-84
2021/05/30 05:33:38;;;;;;;3.93;3.50;;;12.50;87.80;;;;;;4958773;28;20885;-83
2021/05/30 05:36:08;;;;;;;3.90;3.60;;;12.70;88.30;;;;;;4957283;28;20500;-86
2021/05/30 05:38:36;;;;;;;3.63;3.33;;;12.70;87.90;;;;;;4959524;28;20212;-82
2021/05/30 05:41:04;;;;;;;4.27;3.00;;;12.80;87.80;;;;;;4970775;28;20198;-82
2021/05/30 05:43:32;;;;;;;3.97;3.67;;;12.90;87.80;;;;;;4963043;28;20197;-84
2021/05/30 05:46:01;;;;;;;3.97;3.33;;;12.80;87.50;;;;;;4953037;28;20651;-84
2021/05/30 05:48:29;;;;;;;5.67;3.80;;;12.90;87.30;;;;;;4958845;28;20212;-84
2021/05/30 05:50:59;;;;;;;3.73;3.20;;;13.00;87.60;;;;;;4958728;28;20197;-84
2021/05/30 05:53:30;;;;;;;4.33;3.53;;;13.10;87.60;;;;;;4963295;28;20229;-85
2021/05/30 05:56:02;;;;;;;5.53;3.90;;;13.40;87.30;;;;;;4954630;28;20236;-85
2021/05/30 05:58:31;;;;;;;5.90;3.67;;;13.30;87.00;;;;;;4962752;28;20282;-84
2021/05/30 06:01:00;;;;;;;3.63;3.23;;;13.40;87.20;;;;;;4957771;28;20466;-83
2021/05/30 06:03:28;;;;;;;3.70;3.23;;;13.50;86.90;;;;;;4965362;28;20252;-84
2021/05/30 06:05:56;;;;;;;4.27;3.30;;;13.60;86.50;;;;;;4962112;28;20620;-84
2021/05/30 06:08:27;;;;;;;5.17;3.50;;;13.90;86.30;;;;;;4962720;28;20205;-85
2021/05/30 06:10:56;;;;;;;3.57;3.27;;;14.20;85.80;;;;;;4961214;28;20232;-86
2021/05/30 06:13:25;;;;;;;3.63;3.03;;;14.40;85.70;;;;;;4959175;28;20235;-84
2021/05/30 06:15:53;;;;;;;4.23;3.20;;;14.70;85.60;;;;;;4961899;28;20224;-83
2021/05/30 06:18:23;;;;;;;3.60;3.30;;;15.20;84.80;;;;;;4961714;28;20232;-82
2021/05/30 06:20:51;;;;;;;4.40;3.27;;;15.40;84.10;;;;;;4959783;28;20668;-86
2021/05/30 06:23:20;;;;;;;3.60;2.57;;;15.40;84.00;;;;;;4965620;28;20205;-83
2021/05/30 06:25:49;;;;;;;3.53;3.10;;;15.10;84.00;;;;;;4959643;28;20208;-85
2021/05/30 06:28:19;;;;;;;3.87;3.37;;;15.10;84.30;;;;;;4969490;28;20201;-85
2021/05/30 06:30:52;;;;;;;5.20;3.00;;;15.10;84.30;;;;;;4965473;28;20212;-86
2021/05/30 06:33:20;;;;;;;4.07;3.30;;;15.00;84.10;;;;;;4960249;28;20248;-86
2021/05/30 06:35:49;;;;;;;3.83;3.33;;;14.90;84.40;;;;;;4956500;28;20269;-84
2021/05/30 06:38:18;;;;;;;3.13;2.83;;;14.80;85.00;;;;;;4952692;28;20232;-83
2021/05/30 06:40:46;;;;;;;3.13;2.90;;;14.80;84.60;;;;;;4953299;28;20206;-83
2021/05/30 06:43:16;;;;;;;3.23;3.00;;;14.90;84.90;;;;;;4949965;28;20212;-84
2021/05/30 06:45:45;;;;;;;3.90;3.50;;;14.70;84.40;;;;;;4957629;28;20735;-83
2021/05/30 06:48:14;;;;;;;3.30;3.00;;;14.60;84.70;;;;;;4956244;28;20208;-86
2021/05/30 06:51:13;;;;;;;3.90;3.13;;;14.70;84.30;;;;;;4962179;28;20205;-85
2021/05/30 06:53:41;;;;;;;4.63;2.90;;;14.80;84.70;;;;;;4960727;28;20252;-83
2021/05/30 06:56:09;;;;;;;3.17;2.90;;;14.70;84.50;;;;;;4959653;28;20468;-84
2021/05/30 06:58:39;;;;;;;3.90;3.00;;;14.90;84.40;;;;;;4969043;28;20210;-83
2021/05/30 07:01:07;;;;;;;5.20;3.43;;;15.00;84.30;;;;;;4946489;28;20210;-85
2021/05/30 07:03:36;;;;;;;3.63;3.00;;;14.90;84.20;;;;;;4932008;29;20617;-85
2021/05/30 07:06:05;;;;;;;3.20;2.90;;;14.80;84.60;;;;;;4950408;28;20205;-84
2021/05/30 07:08:33;;;;;;;3.33;3.03;;;14.80;84.40;;;;;;4950692;28;20202;-85
2021/05/30 07:11:01;;;;;;;3.37;3.00;;;14.70;84.20;;;;;;4950982;28;20201;-85
2021/05/30 07:13:34;;;;;;;4.43;3.47;;;14.80;84.20;;;;;;4948937;28;20448;-85
2021/05/30 07:16:04;;;;;;;3.50;3.20;;;14.70;84.30;;;;;;4950534;28;20730;-85
2021/05/30 07:18:32;;;;;;;3.30;3.00;;;14.80;84.30;;;;;;4952242;28;20209;-85
2021/05/30 07:21:01;;;;;;;5.23;3.60;;;15.00;83.70;;;;;;4948343;28;20202;-84
2021/05/30 07:23:29;;;;;;;3.70;3.40;;;15.10;84.00;;;;;;4950414;28;20193;-84
2021/05/30 07:25:57;;;;;;;6.70;3.83;;;15.10;83.70;;;;;;4959017;28;20539;-85
2021/05/30 07:28:29;;;;;;;2.93;2.63;;;15.20;83.80;;;;;;4951528;28;20201;-86
2021/05/30 07:30:58;;;;;;;4.70;3.10;;;15.30;83.60;;;;;;4967527;28;20252;-85
2021/05/30 07:33:27;;;;;;;3.40;3.10;;;15.50;83.70;;;;;;4961970;28;20236;-86
2021/05/30 07:35:56;;;;;;;4.00;3.60;;;15.70;83.50;;;;;;4963479;28;20358;-84
2021/05/30 07:38:26;;;;;;;3.27;2.97;;;15.90;83.20;;;;;;4963155;28;20476;-83
2021/05/30 07:40:54;;;;;;;4.57;3.40;;;15.80;83.20;;;;;;4959379;28;20224;-84
2021/05/30 07:43:22;;;;;;;4.47;2.83;;;15.80;83.00;;;;;;4957994;28;20561;-84
2021/05/30 07:45:50;;;;;;;3.60;3.30;;;16.00;82.90;;;;;;4959226;28;20213;-84
2021/05/30 07:48:19;;;;;;;5.13;2.37;;;16.00;82.50;;;;;;4958200;29;20202;-85
2021/05/30 07:50:49;;;;;;;3.80;3.20;;;16.00;82.30;;;;;;4965888;28;20189;-87
2021/05/30 07:53:17;;;;;;;2.83;2.63;;;16.10;82.50;;;;;;4968663;28;20241;-84
2021/05/30 07:55:45;;;;;;;4.30;2.70;;;16.30;82.40;;;;;;4967734;28;20291;-82
2021/05/30 07:58:14;;;;;;;3.00;2.80;;;16.40;82.10;;;;;;4958761;28;20205;-83
2021/05/30 08:00:43;;;;;;;3.93;2.80;;;16.40;82.30;;;;;;4942026;29;20212;-83
2021/05/30 08:03:11;;;;;;;3.60;3.30;;;16.50;82.10;;;;;;4957909;28;20209;-85
2021/05/30 08:05:57;;;;;;;3.17;2.90;;;16.50;81.80;;;;;;4958559;28;20252;-85
2021/05/30 08:08:33;;;;;;;2.73;2.53;;;16.60;81.80;;;;;;4950709;28;20220;-86
2021/05/30 08:11:03;;;;;;;3.30;3.00;;;16.80;81.70;;;;;;4958267;29;20198;-86
2021/05/30 08:13:38;;;;;;;3.93;2.97;;;16.80;81.60;;;;;;4961336;28;20233;-85
2021/05/30 08:16:11;;;;;;;3.57;2.90;;;16.80;81.50;;;;;;4960204;28;20308;-85
2021/05/30 08:18:41;;;;;;;3.27;2.60;;;16.90;81.60;;;;;;4962492;28;20210;-83
2021/05/30 08:21:11;;;;;;;3.47;2.70;;;16.90;81.20;;;;;;4963360;28;20213;-86
2021/05/30 08:23:42;;;;;;;3.07;2.77;;;17.00;81.30;;;;;;4964319;28;20206;-84
2021/05/30 08:26:12;;;;;;;3.23;2.83;;;17.10;81.30;;;;;;4961008;28;20554;-86
2021/05/30 08:28:41;;;;;;;3.30;3.10;;;17.40;81.50;;;;;;4963597;28;20202;-85
2021/05/30 08:31:14;;;;;;;3.63;3.00;;;17.70;80.90;;;;;;4970799;28;20210;-86
2021/05/30 08:33:48;;;;;;;3.30;3.00;;;17.50;80.70;;;;;;4974368;28;20239;-85
2021/05/30 08:36:18;;;;;;;3.33;3.03;;;17.30;81.10;;;;;;4970314;28;20212;-83
2021/05/30 08:38:49;;;;;;;3.20;3.00;;;17.20;80.50;;;;;;4978266;28;20208;-88
2021/05/30 08:41:18;;;;;;;3.13;2.83;;;17.10;80.80;;;;;;4982769;28;20207;-84
2021/05/30 08:43:48;;;;;;;3.40;3.10;;;16.90;80.70;;;;;;4983127;28;20224;-84
2021/05/30 08:46:16;;;;;;;2.37;2.00;;;16.80;81.00;;;;;;4962442;28;20209;-83
2021/05/30 08:48:45;;;;;;;5.10;2.73;;;16.50;80.80;;;;;;4998712;22;20257;-85
2021/05/30 08:51:17;;;;;;;3.67;2.90;;;16.30;81.20;;;;;;5040536;28;20298;-86
2021/05/30 08:53:47;;;;;;;2.83;2.63;;;16.30;81.00;;;;;;5048026;28;20309;-86
2021/05/30 08:56:21;;;;;;;2.60;2.40;;;16.70;80.80;;;;;;5049917;28;20206;-84
2021/05/30 08:58:52;;;;;;;2.50;2.40;;;16.80;80.60;;;;;;5029878;28;20198;-84
2021/05/30 09:01:42;;;;;;;2.90;2.70;;;17.10;80.90;;;;;;5046882;28;20187;-87
2021/05/30 09:04:16;;;;;;;3.70;2.60;;;17.30;80.10;;;;;;5040812;28;20245;-83
2021/05/30 09:06:54;;;;;;;3.20;2.90;;;17.40;79.70;;;;;;5041918;28;20195;-87
2021/05/30 09:09:25;;;;;;;3.40;3.10;;;17.40;80.30;;;;;;5043395;28;20229;-83
2021/05/30 09:11:56;;;;;;;5.63;2.90;;;17.50;80.20;;;;;;5049448;28;20207;-85
2021/05/30 09:14:56;;;;;;;2.83;2.63;;;17.30;80.00;;;;;;5029187;28;20245;-85
2021/05/30 09:17:28;;;;;;;4.87;3.30;;;17.20;80.40;;;;;;5034286;28;20198;-85
2021/05/30 09:19:58;;;;;;;3.63;2.70;;;17.10;80.00;;;;;;5030458;28;20589;-84
2021/05/30 09:22:37;;;;;;;2.90;2.60;;;17.00;80.40;;;;;;5030964;28;20222;-87
2021/05/30 09:25:21;;;;;;;4.90;2.90;;;16.90;80.10;;;;;;5027823;28;20234;-85
2021/05/30 09:27:53;;;;;;;3.47;2.70;;;16.90;80.60;;;;;;5031389;28;20245;-85
2021/05/30 09:30:34;;;;;;;3.20;3.00;;;17.00;80.80;;;;;;5028407;28;21066;-83
2021/05/30 09:33:06;;;;;;;3.23;2.80;;;17.10;80.70;;;;;;5022530;28;20209;-84
2021/05/30 09:35:59;;;;;;;4.70;3.00;;;17.00;80.40;;;;;;5026931;28;20250;-83
2021/05/30 09:38:32;;;;;;;4.03;2.70;;;17.10;80.60;;;;;;5012937;28;20214;-83
2021/05/30 09:41:04;;;;;;;2.70;2.50;;;17.40;80.60;;;;;;5023515;28;20286;-83
2021/05/30 09:43:36;;;;;;;3.00;2.57;;;17.50;79.60;;;;;;5027308;28;20280;-84
2021/05/30 09:46:09;;;;;;;2.77;2.57;;;17.60;79.80;;;;;;5028667;28;20203;-83
2021/05/30 09:48:43;;;;;;;2.70;2.20;;;17.80;79.60;;;;;;5039923;28;20215;-82
2021/05/30 09:51:40;;;;;;;3.33;2.63;;;17.90;79.30;;;;;;5014864;28;20559;-86
2021/05/30 09:54:11;;;;;;;2.10;2.00;;;18.00;78.70;;;;;;4978440;28;20235;-84
2021/05/30 09:56:43;;;;;;;3.27;2.30;;;17.80;78.30;;;;;;5022999;28;20197;-83
2021/05/30 09:59:13;;;;;;;2.60;2.40;;;17.90;78.80;;;;;;5022545;28;20449;-86
2021/05/30 10:01:53;;;;;;;2.50;2.17;;;18.10;78.20;;;;;;5017385;28;20234;-85
2021/05/30 10:04:24;;;;;;;11.00;2.83;;;18.10;78.20;;;;;;5016533;28;20955;-83
2021/05/30 10:06:54;;;;;;;2.60;2.30;;;18.10;78.20;;;;;;5018006;28;20219;-84
2021/05/30 10:09:23;;;;;;;2.40;2.30;;;17.90;78.10;;;;;;5013048;28;20600;-83
2021/05/30 10:11:52;;;;;;;4.17;2.50;;;17.80;77.90;;;;;;5013369;28;20207;-84
2021/05/30 10:14:21;;;;;;;2.43;2.23;;;17.70;77.60;;;;;;5011102;28;20234;-86
2021/05/30 10:16:49;;;;;;;2.50;2.30;;;17.90;78.00;;;;;;5013948;28;20213;-85
2021/05/30 10:19:24;;;;;;;2.17;2.07;;;18.10;78.30;;;;;;5000112;28;20704;-84
2021/05/30 10:21:55;;;;;;;2.10;2.00;;;18.40;77.80;;;;;;4993490;28;20216;-85
2021/05/30 10:24:24;;;;;;;2.93;2.00;;;18.40;76.70;;;;;;5018042;28;20246;-85
2021/05/30 10:27:11;;;;;;;2.43;2.23;;;18.40;76.40;;;;;;5015449;28;20286;-86
2021/05/30 10:29:40;;;;;;;3.03;2.30;;;18.20;76.60;;;;;;5012887;28;20203;-84
2021/05/30 10:32:16;;;;;;;2.50;2.30;;;17.90;76.50;;;;;;5010209;28;20275;-84
2021/05/30 10:35:09;;;;;;;2.60;2.40;;;17.60;77.20;;;;;;5008107;28;20238;-83
2021/05/30 10:37:44;;;;;;;2.80;2.20;;;17.20;77.30;;;;;;5006349;28;20219;-84
2021/05/30 10:40:35;;;;;;;2.83;2.53;;;17.10;78.00;;;;;;5015071;28;20206;-85
2021/05/30 10:43:20;;;;;;;3.77;2.33;;;17.00;77.70;;;;;;5005318;28;20211;-86
2021/05/30 10:46:07;;;;;;;2.30;2.20;;;16.90;78.00;;;;;;5024932;28;20187;-84
2021/05/30 10:48:37;;;;;;;2.37;2.23;;;16.90;77.10;;;;;;4992121;28;20676;-83
2021/05/30 10:51:16;;;;;;;4.40;2.50;;;16.80;77.60;;;;;;5025716;28;20210;-85
2021/05/30 10:53:46;;;;;;;2.50;2.30;;;16.90;77.70;;;;;;5044543;28;20210;-86
2021/05/30 10:56:17;;;;;;;3.47;2.03;;;17.00;77.70;;;;;;5047827;28;20234;-85
2021/05/30 10:59:20;;;;;;;3.27;2.00;;;17.10;77.30;;;;;;5042717;28;20222;-85
2021/05/30 11:01:51;;;;;;;2.40;2.20;;;17.20;77.30;;;;;;5031019;28;20198;-85
2021/05/30 11:04:37;;;;;;;2.23;2.03;;;17.40;77.00;;;;;;5027070;28;20202;-85
2021/05/30 11:07:34;;;;;;;2.63;2.07;;;17.30;76.60;;;;;;5041008;28;20178;-86
2021/05/30 11:10:13;;;;;;;4.00;2.00;;;17.50;76.90;;;;;;5005513;28;20211;-83
2021/05/30 11:12:50;;;;;;;2.43;2.20;;;17.70;76.80;;;;;;5024922;28;20841;-85
2021/05/30 11:15:33;;;;;;;2.40;2.00;;;17.80;76.60;;;;;;5028559;28;20218;-85
2021/05/30 11:18:03;;;;;;;2.50;2.30;;;18.00;76.20;;;;;;5023423;28;20210;-84
2021/05/30 11:20:46;;;;;;;2.27;2.10;;;18.30;76.40;;;;;;5029153;28;20207;-86
2021/05/30 11:23:20;;;;;;;3.07;2.43;;;18.60;76.40;;;;;;5021951;28;20202;-87
2021/05/30 11:25:51;;;;;;;2.40;2.20;;;18.60;76.10;;;;;;5024581;28;20195;-84
2021/05/30 11:28:21;;;;;;;4.43;2.10;;;18.50;76.10;;;;;;5027381;28;20272;-84
2021/05/30 11:30:56;;;;;;;2.50;2.30;;;18.40;75.80;;;;;;5025695;28;20296;-83
2021/05/30 11:33:31;;;;;;;2.87;2.17;;;18.50;75.40;;;;;;5032387;28;20248;-84
2021/05/30 11:36:01;;;;;;;1.67;1.57;;;18.60;75.20;;;;;;5031850;28;20221;-83
2021/05/30 11:38:41;;;;;;;2.90;2.10;;;18.80;74.10;;;;;;5037845;28;20779;-84
2021/05/30 11:41:19;;;;;;;3.50;2.33;;;18.60;74.70;;;;;;5026763;28;20191;-83
2021/05/30 11:44:00;;;;;;;2.07;1.97;;;18.40;74.50;;;;;;5027996;28;20696;-84
2021/05/30 11:46:31;;;;;;;2.47;1.97;;;18.50;74.80;;;;;;5022303;28;20206;-83
2021/05/30 11:49:03;;;;;;;7.70;2.03;;;18.70;74.20;;;;;;5020953;28;20210;-84
2021/05/30 11:52:02;;;;;;;2.63;2.10;;;18.80;73.80;;;;;;5023093;28;20450;-84
2021/05/30 11:54:33;;;;;;;1.90;1.70;;;18.80;73.60;;;;;;5020273;28;20576;-81
2021/05/30 11:57:05;;;;;;;5.07;2.00;;;18.80;74.00;;;;;;5029302;28;20186;-85
2021/05/30 11:59:36;;;;;;;3.57;2.03;;;18.90;73.80;;;;;;5050839;28;20183;-84
2021/05/30 12:02:11;;;;;;;2.10;1.90;;;19.10;73.70;;;;;;5051394;28;20186;-85
2021/05/30 12:04:41;;;;;;;2.30;2.10;;;19.20;73.00;;;;;;5039823;28;20206;-84
2021/05/30 12:07:10;;;;;;;2.40;2.10;;;19.20;73.50;;;;;;5031193;28;20199;-83
2021/05/30 12:09:51;;;;;;;3.43;2.10;;;18.90;73.50;;;;;;5035427;28;20213;-85
2021/05/30 12:12:31;;;;;;;3.43;2.07;;;19.20;73.70;;;;;;5034161;28;20201;-83
2021/05/30 12:15:12;;;;;;;2.13;2.03;;;19.40;73.00;;;;;;5038518;28;20268;-86
2021/05/30 12:17:56;;;;;;;2.00;1.90;;;19.70;72.50;;;;;;5035304;28;20238;-83
2021/05/30 12:20:26;;;;;;;2.47;2.30;;;19.60;72.60;;;;;;5030849;28;20206;-83
2021/05/30 12:23:07;;;;;;;2.63;1.83;;;20.00;72.50;;;;;;5036929;28;20441;-85
2021/05/30 12:25:36;;;;;;;2.87;2.27;;;19.80;71.80;;;;;;5031048;28;20780;-82
2021/05/30 12:28:09;;;;;;;2.37;2.17;;;19.90;72.60;;;;;;5029251;28;20214;-84
2021/05/30 12:30:37;;;;;;;2.47;1.87;;;19.90;71.90;;;;;;5028847;28;20217;-85
2021/05/30 12:33:07;;;;;;;1.93;1.83;;;19.60;71.30;;;;;;5033084;28;20281;-84
2021/05/30 12:35:52;;;;;;;2.33;2.00;;;19.50;71.60;;;;;;5038630;28;20210;-84
2021/05/30 12:38:23;;;;;;;1.90;1.80;;;19.50;71.70;;;;;;5041387;28;20535;-84
2021/05/30 12:40:52;;;;;;;2.07;1.97;;;19.50;71.40;;;;;;5036875;28;20211;-85
2021/05/30 12:43:34;;;;;;;2.87;2.10;;;19.10;71.10;;;;;;5033595;28;20222;-84
2021/05/30 12:46:05;;;;;;;1.80;1.70;;;18.80;70.70;;;;;;5043038;28;20198;-85
2021/05/30 12:48:42;;;;;;;2.70;2.00;;;18.90;71.70;;;;;;5031540;28;20202;-86
2021/05/30 12:51:16;;;;;;;2.13;1.93;;;19.20;71.70;;;;;;5026847;28;20269;-87
2021/05/30 12:53:45;;;;;;;2.10;1.80;;;19.30;71.50;;;;;;5038717;28;20217;-85
2021/05/30 12:56:18;;;;;;;2.70;2.50;;;19.10;71.40;;;;;;5039908;28;20704;-82
2021/05/30 12:58:46;;;;;;;2.17;1.97;;;19.10;71.50;;;;;;5033096;28;20209;-85
2021/05/30 13:01:23;;;;;;;2.10;1.90;;;19.10;70.90;;;;;;5025757;28;20576;-84
2021/05/30 13:03:53;;;;;;;2.40;2.10;;;19.10;70.70;;;;;;5030962;28;20218;-84
2021/05/30 13:06:22;;;;;;;2.40;2.00;;;18.90;71.00;;;;;;5036309;28;20560;-85
2021/05/30 13:09:00;;;;;;;2.60;2.40;;;18.90;70.60;;;;;;5050726;28;20235;-87